<?xml version="1.0" encoding="UTF-8" standalone="no" ?>
<gpx xmlns="http://www.topografix.com/GPX/1/1" xmlns:xsi="http://www.w3.org/2001/XMLSchema-instance" xsi:schemaLocation="http://www.topografix.com/GPX/1/1 http://www.topografix.com/GPX/1/1/gpx.xsd" version="1.1" creator="VisuGPX - https://www.visugpx.com">
  <metadata>
    <name>PILON DU ROI</name>
    <desc><![CDATA[Rando facile,quelques passages délicats,paysage magnifique.]]></desc>
  </metadata>
  <trk>
    <name><![CDATA[2013-05-29-01]]></name>
    <trkseg>
      <trkpt lat="43.36596" lon="5.48823">
        <ele>205.1</ele>
        <time>2013-05-29T06:59:34Z</time>
      </trkpt>
      <trkpt lat="43.36595" lon="5.48834">
        <ele>186.3</ele>
        <time>2013-05-29T06:59:55Z</time>
      </trkpt>
      <trkpt lat="43.36595" lon="5.48836">
        <ele>183.5</ele>
        <time>2013-05-29T06:59:56Z</time>
      </trkpt>
      <trkpt lat="43.36604" lon="5.48842">
        <ele>189.6</ele>
        <time>2013-05-29T07:00:50Z</time>
      </trkpt>
      <trkpt lat="43.3661" lon="5.48836">
        <ele>187.6</ele>
        <time>2013-05-29T07:01:01Z</time>
      </trkpt>
      <trkpt lat="43.36611" lon="5.48835">
        <ele>188.3</ele>
        <time>2013-05-29T07:01:02Z</time>
      </trkpt>
      <trkpt lat="43.36625" lon="5.48824">
        <ele>190.8</ele>
        <time>2013-05-29T07:01:22Z</time>
      </trkpt>
      <trkpt lat="43.3663" lon="5.48814">
        <ele>192.6</ele>
        <time>2013-05-29T07:01:31Z</time>
      </trkpt>
      <trkpt lat="43.36634" lon="5.48804">
        <ele>194.8</ele>
        <time>2013-05-29T07:01:39Z</time>
      </trkpt>
      <trkpt lat="43.36639" lon="5.48795">
        <ele>194.1</ele>
        <time>2013-05-29T07:01:47Z</time>
      </trkpt>
      <trkpt lat="43.36644" lon="5.48786">
        <ele>192.6</ele>
        <time>2013-05-29T07:01:55Z</time>
      </trkpt>
      <trkpt lat="43.36651" lon="5.48777">
        <ele>196.8</ele>
        <time>2013-05-29T07:02:02Z</time>
      </trkpt>
      <trkpt lat="43.36651" lon="5.48776">
        <ele>197.6</ele>
        <time>2013-05-29T07:02:03Z</time>
      </trkpt>
      <trkpt lat="43.36664" lon="5.48764">
        <ele>203.8</ele>
        <time>2013-05-29T07:02:15Z</time>
      </trkpt>
      <trkpt lat="43.3667" lon="5.48757">
        <ele>205.8</ele>
        <time>2013-05-29T07:02:22Z</time>
      </trkpt>
      <trkpt lat="43.36674" lon="5.48746">
        <ele>210.1</ele>
        <time>2013-05-29T07:02:28Z</time>
      </trkpt>
      <trkpt lat="43.36679" lon="5.48737">
        <ele>201.5</ele>
        <time>2013-05-29T07:02:38Z</time>
      </trkpt>
      <trkpt lat="43.36685" lon="5.48728">
        <ele>198.3</ele>
        <time>2013-05-29T07:02:46Z</time>
      </trkpt>
      <trkpt lat="43.36692" lon="5.48721">
        <ele>198.8</ele>
        <time>2013-05-29T07:02:53Z</time>
      </trkpt>
      <trkpt lat="43.36699" lon="5.48714">
        <ele>199.1</ele>
        <time>2013-05-29T07:03:00Z</time>
      </trkpt>
      <trkpt lat="43.36706" lon="5.48706">
        <ele>198.8</ele>
        <time>2013-05-29T07:03:08Z</time>
      </trkpt>
      <trkpt lat="43.36707" lon="5.48705">
        <ele>199.5</ele>
        <time>2013-05-29T07:03:09Z</time>
      </trkpt>
      <trkpt lat="43.36714" lon="5.48687">
        <ele>200.3</ele>
        <time>2013-05-29T07:03:22Z</time>
      </trkpt>
      <trkpt lat="43.36716" lon="5.48676">
        <ele>202.6</ele>
        <time>2013-05-29T07:03:28Z</time>
      </trkpt>
      <trkpt lat="43.36719" lon="5.48666">
        <ele>199.5</ele>
        <time>2013-05-29T07:03:36Z</time>
      </trkpt>
      <trkpt lat="43.36722" lon="5.48655">
        <ele>200.1</ele>
        <time>2013-05-29T07:03:43Z</time>
      </trkpt>
      <trkpt lat="43.36724" lon="5.48643">
        <ele>198.1</ele>
        <time>2013-05-29T07:03:52Z</time>
      </trkpt>
      <trkpt lat="43.36726" lon="5.48632">
        <ele>197</ele>
        <time>2013-05-29T07:04:00Z</time>
      </trkpt>
      <trkpt lat="43.3673" lon="5.48621">
        <ele>196</ele>
        <time>2013-05-29T07:04:08Z</time>
      </trkpt>
      <trkpt lat="43.36736" lon="5.48612">
        <ele>194.6</ele>
        <time>2013-05-29T07:04:16Z</time>
      </trkpt>
      <trkpt lat="43.36737" lon="5.48611">
        <ele>194.3</ele>
        <time>2013-05-29T07:04:17Z</time>
      </trkpt>
      <trkpt lat="43.36751" lon="5.48602">
        <ele>193.3</ele>
        <time>2013-05-29T07:04:30Z</time>
      </trkpt>
      <trkpt lat="43.36758" lon="5.48598">
        <ele>198.3</ele>
        <time>2013-05-29T07:04:37Z</time>
      </trkpt>
      <trkpt lat="43.36765" lon="5.48593">
        <ele>201.5</ele>
        <time>2013-05-29T07:04:44Z</time>
      </trkpt>
      <trkpt lat="43.36773" lon="5.48588">
        <ele>200</ele>
        <time>2013-05-29T07:04:52Z</time>
      </trkpt>
      <trkpt lat="43.3678" lon="5.48582">
        <ele>198.1</ele>
        <time>2013-05-29T07:05:02Z</time>
      </trkpt>
      <trkpt lat="43.36788" lon="5.48578">
        <ele>200</ele>
        <time>2013-05-29T07:05:11Z</time>
      </trkpt>
      <trkpt lat="43.36796" lon="5.48576">
        <ele>203</ele>
        <time>2013-05-29T07:05:19Z</time>
      </trkpt>
      <trkpt lat="43.36797" lon="5.48576">
        <ele>203</ele>
        <time>2013-05-29T07:05:20Z</time>
      </trkpt>
      <trkpt lat="43.36812" lon="5.48583">
        <ele>201.5</ele>
        <time>2013-05-29T07:05:38Z</time>
      </trkpt>
      <trkpt lat="43.3682" lon="5.48588">
        <ele>200.8</ele>
        <time>2013-05-29T07:05:46Z</time>
      </trkpt>
      <trkpt lat="43.36827" lon="5.48593">
        <ele>200.6</ele>
        <time>2013-05-29T07:05:54Z</time>
      </trkpt>
      <trkpt lat="43.36834" lon="5.48598">
        <ele>200.3</ele>
        <time>2013-05-29T07:06:01Z</time>
      </trkpt>
      <trkpt lat="43.36844" lon="5.48604">
        <ele>200.8</ele>
        <time>2013-05-29T07:06:08Z</time>
      </trkpt>
      <trkpt lat="43.36851" lon="5.48608">
        <ele>203.5</ele>
        <time>2013-05-29T07:06:16Z</time>
      </trkpt>
      <trkpt lat="43.36859" lon="5.48612">
        <ele>203.6</ele>
        <time>2013-05-29T07:06:23Z</time>
      </trkpt>
      <trkpt lat="43.3686" lon="5.48612">
        <ele>203.8</ele>
        <time>2013-05-29T07:06:24Z</time>
      </trkpt>
      <trkpt lat="43.36876" lon="5.48616">
        <ele>200.6</ele>
        <time>2013-05-29T07:06:38Z</time>
      </trkpt>
      <trkpt lat="43.36883" lon="5.48613">
        <ele>200.8</ele>
        <time>2013-05-29T07:06:44Z</time>
      </trkpt>
      <trkpt lat="43.36891" lon="5.48609">
        <ele>200.3</ele>
        <time>2013-05-29T07:06:52Z</time>
      </trkpt>
      <trkpt lat="43.36899" lon="5.48605">
        <ele>200.8</ele>
        <time>2013-05-29T07:07:00Z</time>
      </trkpt>
      <trkpt lat="43.36907" lon="5.48606">
        <ele>203.5</ele>
        <time>2013-05-29T07:07:07Z</time>
      </trkpt>
      <trkpt lat="43.36915" lon="5.48612">
        <ele>202.3</ele>
        <time>2013-05-29T07:07:15Z</time>
      </trkpt>
      <trkpt lat="43.36917" lon="5.48623">
        <ele>204.8</ele>
        <time>2013-05-29T07:07:22Z</time>
      </trkpt>
      <trkpt lat="43.36919" lon="5.48634">
        <ele>204.1</ele>
        <time>2013-05-29T07:07:30Z</time>
      </trkpt>
      <trkpt lat="43.36919" lon="5.48636">
        <ele>204.1</ele>
        <time>2013-05-29T07:07:31Z</time>
      </trkpt>
      <trkpt lat="43.36924" lon="5.48656">
        <ele>203.1</ele>
        <time>2013-05-29T07:07:45Z</time>
      </trkpt>
      <trkpt lat="43.36924" lon="5.48668">
        <ele>203.1</ele>
        <time>2013-05-29T07:07:53Z</time>
      </trkpt>
      <trkpt lat="43.36922" lon="5.48679">
        <ele>202.1</ele>
        <time>2013-05-29T07:08:00Z</time>
      </trkpt>
      <trkpt lat="43.3692" lon="5.48691">
        <ele>201.6</ele>
        <time>2013-05-29T07:08:08Z</time>
      </trkpt>
      <trkpt lat="43.36919" lon="5.48703">
        <ele>200.3</ele>
        <time>2013-05-29T07:08:16Z</time>
      </trkpt>
      <trkpt lat="43.36923" lon="5.48713">
        <ele>204.8</ele>
        <time>2013-05-29T07:08:23Z</time>
      </trkpt>
      <trkpt lat="43.3693" lon="5.4872">
        <ele>209.6</ele>
        <time>2013-05-29T07:08:30Z</time>
      </trkpt>
      <trkpt lat="43.36936" lon="5.48726">
        <ele>212.3</ele>
        <time>2013-05-29T07:08:36Z</time>
      </trkpt>
      <trkpt lat="43.36938" lon="5.48727">
        <ele>213.1</ele>
        <time>2013-05-29T07:08:37Z</time>
      </trkpt>
      <trkpt lat="43.3695" lon="5.48739">
        <ele>213.8</ele>
        <time>2013-05-29T07:08:50Z</time>
      </trkpt>
      <trkpt lat="43.36958" lon="5.48742">
        <ele>215.3</ele>
        <time>2013-05-29T07:08:58Z</time>
      </trkpt>
      <trkpt lat="43.36966" lon="5.48742">
        <ele>215.5</ele>
        <time>2013-05-29T07:09:05Z</time>
      </trkpt>
      <trkpt lat="43.36974" lon="5.4874">
        <ele>216.8</ele>
        <time>2013-05-29T07:09:13Z</time>
      </trkpt>
      <trkpt lat="43.36983" lon="5.48737">
        <ele>216.5</ele>
        <time>2013-05-29T07:09:21Z</time>
      </trkpt>
      <trkpt lat="43.3699" lon="5.48731">
        <ele>213</ele>
        <time>2013-05-29T07:09:30Z</time>
      </trkpt>
      <trkpt lat="43.36997" lon="5.48724">
        <ele>213.6</ele>
        <time>2013-05-29T07:09:38Z</time>
      </trkpt>
      <trkpt lat="43.36997" lon="5.48724">
        <ele>213.6</ele>
        <time>2013-05-29T07:09:39Z</time>
      </trkpt>
      <trkpt lat="43.37013" lon="5.4872">
        <ele>212.1</ele>
        <time>2013-05-29T07:09:53Z</time>
      </trkpt>
      <trkpt lat="43.37021" lon="5.48724">
        <ele>214.5</ele>
        <time>2013-05-29T07:10:00Z</time>
      </trkpt>
      <trkpt lat="43.37027" lon="5.48733">
        <ele>215.5</ele>
        <time>2013-05-29T07:10:08Z</time>
      </trkpt>
      <trkpt lat="43.37031" lon="5.48743">
        <ele>215.3</ele>
        <time>2013-05-29T07:10:16Z</time>
      </trkpt>
      <trkpt lat="43.37037" lon="5.48751">
        <ele>216.3</ele>
        <time>2013-05-29T07:10:22Z</time>
      </trkpt>
      <trkpt lat="43.37045" lon="5.48753">
        <ele>218.8</ele>
        <time>2013-05-29T07:10:28Z</time>
      </trkpt>
      <trkpt lat="43.37053" lon="5.48753">
        <ele>219.6</ele>
        <time>2013-05-29T07:10:35Z</time>
      </trkpt>
      <trkpt lat="43.37062" lon="5.48749">
        <ele>218.1</ele>
        <time>2013-05-29T07:10:43Z</time>
      </trkpt>
      <trkpt lat="43.37062" lon="5.48748">
        <ele>217.3</ele>
        <time>2013-05-29T07:10:44Z</time>
      </trkpt>
      <trkpt lat="43.37076" lon="5.48739">
        <ele>219.6</ele>
        <time>2013-05-29T07:10:58Z</time>
      </trkpt>
      <trkpt lat="43.37084" lon="5.48734">
        <ele>220.3</ele>
        <time>2013-05-29T07:11:06Z</time>
      </trkpt>
      <trkpt lat="43.37091" lon="5.48728">
        <ele>216.8</ele>
        <time>2013-05-29T07:11:16Z</time>
      </trkpt>
      <trkpt lat="43.371" lon="5.48727">
        <ele>215.3</ele>
        <time>2013-05-29T07:11:22Z</time>
      </trkpt>
      <trkpt lat="43.37108" lon="5.48731">
        <ele>216.3</ele>
        <time>2013-05-29T07:11:28Z</time>
      </trkpt>
      <trkpt lat="43.37114" lon="5.48738">
        <ele>216.6</ele>
        <time>2013-05-29T07:11:35Z</time>
      </trkpt>
      <trkpt lat="43.3712" lon="5.48745">
        <ele>216.8</ele>
        <time>2013-05-29T07:11:42Z</time>
      </trkpt>
      <trkpt lat="43.37127" lon="5.48752">
        <ele>215.1</ele>
        <time>2013-05-29T07:11:48Z</time>
      </trkpt>
      <trkpt lat="43.37128" lon="5.48753">
        <ele>214.8</ele>
        <time>2013-05-29T07:11:49Z</time>
      </trkpt>
      <trkpt lat="43.3713" lon="5.48774">
        <ele>213.6</ele>
        <time>2013-05-29T07:12:02Z</time>
      </trkpt>
      <trkpt lat="43.37133" lon="5.48785">
        <ele>212.3</ele>
        <time>2013-05-29T07:12:10Z</time>
      </trkpt>
      <trkpt lat="43.37138" lon="5.48794">
        <ele>212.6</ele>
        <time>2013-05-29T07:12:17Z</time>
      </trkpt>
      <trkpt lat="43.37144" lon="5.488">
        <ele>213.6</ele>
        <time>2013-05-29T07:12:24Z</time>
      </trkpt>
      <trkpt lat="43.37153" lon="5.48804">
        <ele>218.6</ele>
        <time>2013-05-29T07:12:30Z</time>
      </trkpt>
      <trkpt lat="43.37161" lon="5.48805">
        <ele>219</ele>
        <time>2013-05-29T07:12:37Z</time>
      </trkpt>
      <trkpt lat="43.37169" lon="5.48805">
        <ele>220.5</ele>
        <time>2013-05-29T07:12:43Z</time>
      </trkpt>
      <trkpt lat="43.37177" lon="5.48803">
        <ele>221.3</ele>
        <time>2013-05-29T07:12:50Z</time>
      </trkpt>
      <trkpt lat="43.37178" lon="5.48802">
        <ele>221.5</ele>
        <time>2013-05-29T07:12:51Z</time>
      </trkpt>
      <trkpt lat="43.37193" lon="5.48793">
        <ele>222.8</ele>
        <time>2013-05-29T07:13:05Z</time>
      </trkpt>
      <trkpt lat="43.37201" lon="5.4879">
        <ele>223.1</ele>
        <time>2013-05-29T07:13:12Z</time>
      </trkpt>
      <trkpt lat="43.37209" lon="5.48787">
        <ele>224.6</ele>
        <time>2013-05-29T07:13:19Z</time>
      </trkpt>
      <trkpt lat="43.37217" lon="5.48784">
        <ele>229</ele>
        <time>2013-05-29T07:13:26Z</time>
      </trkpt>
      <trkpt lat="43.37226" lon="5.48783">
        <ele>226.3</ele>
        <time>2013-05-29T07:13:33Z</time>
      </trkpt>
      <trkpt lat="43.37234" lon="5.48781">
        <ele>223.5</ele>
        <time>2013-05-29T07:13:42Z</time>
      </trkpt>
      <trkpt lat="43.37241" lon="5.48774">
        <ele>221.3</ele>
        <time>2013-05-29T07:13:50Z</time>
      </trkpt>
      <trkpt lat="43.37246" lon="5.48765">
        <ele>225.3</ele>
        <time>2013-05-29T07:13:57Z</time>
      </trkpt>
      <trkpt lat="43.37247" lon="5.48764">
        <ele>225.8</ele>
        <time>2013-05-29T07:13:58Z</time>
      </trkpt>
      <trkpt lat="43.37256" lon="5.48746">
        <ele>232.6</ele>
        <time>2013-05-29T07:14:14Z</time>
      </trkpt>
      <trkpt lat="43.37261" lon="5.48737">
        <ele>233.6</ele>
        <time>2013-05-29T07:14:21Z</time>
      </trkpt>
      <trkpt lat="43.37266" lon="5.48728">
        <ele>232.3</ele>
        <time>2013-05-29T07:14:28Z</time>
      </trkpt>
      <trkpt lat="43.37273" lon="5.48722">
        <ele>229.8</ele>
        <time>2013-05-29T07:14:36Z</time>
      </trkpt>
      <trkpt lat="43.37281" lon="5.4872">
        <ele>227.3</ele>
        <time>2013-05-29T07:14:44Z</time>
      </trkpt>
      <trkpt lat="43.3729" lon="5.4872">
        <ele>226.1</ele>
        <time>2013-05-29T07:14:52Z</time>
      </trkpt>
      <trkpt lat="43.37299" lon="5.4872">
        <ele>226.5</ele>
        <time>2013-05-29T07:14:59Z</time>
      </trkpt>
      <trkpt lat="43.373" lon="5.4872">
        <ele>226.3</ele>
        <time>2013-05-29T07:15:00Z</time>
      </trkpt>
      <trkpt lat="43.37316" lon="5.48722">
        <ele>228</ele>
        <time>2013-05-29T07:15:13Z</time>
      </trkpt>
      <trkpt lat="43.37324" lon="5.48721">
        <ele>229</ele>
        <time>2013-05-29T07:15:19Z</time>
      </trkpt>
      <trkpt lat="43.37332" lon="5.4872">
        <ele>226.6</ele>
        <time>2013-05-29T07:15:25Z</time>
      </trkpt>
      <trkpt lat="43.37341" lon="5.48718">
        <ele>223.1</ele>
        <time>2013-05-29T07:15:34Z</time>
      </trkpt>
      <trkpt lat="43.37349" lon="5.48717">
        <ele>223.3</ele>
        <time>2013-05-29T07:15:39Z</time>
      </trkpt>
      <trkpt lat="43.37357" lon="5.48714">
        <ele>224.1</ele>
        <time>2013-05-29T07:15:46Z</time>
      </trkpt>
      <trkpt lat="43.37364" lon="5.48709">
        <ele>230.6</ele>
        <time>2013-05-29T07:15:53Z</time>
      </trkpt>
      <trkpt lat="43.37373" lon="5.48709">
        <ele>227.8</ele>
        <time>2013-05-29T07:16:02Z</time>
      </trkpt>
      <trkpt lat="43.37374" lon="5.48709">
        <ele>229</ele>
        <time>2013-05-29T07:16:03Z</time>
      </trkpt>
    </trkseg>
  </trk>
</gpx>